sensor_id;sensor_type;location;lat;lon;timestamp;temperature;humidity
24152;DHT22;12311;50.866;4.332;2022-07-29T00:01:34;19.50;99.90
24152;DHT22;12311;50.866;4.332;2022-07-29T00:03:59;19.50;99.90
24152;DHT22;12311;50.866;4.332;2022-07-29T00:06:25;19.50;99.90
24152;DHT22;12311;50.866;4.332;2022-07-29T00:08:51;19.60;99.90
24152;DHT22;12311;50.866;4.332;2022-07-29T00:11:16;19.50;99.90
24152;DHT22;12311;50.866;4.332;2022-07-29T00:13:42;19.50;99.90
24152;DHT22;12311;50.866;4.332;2022-07-29T00:16:08;19.50;99.90
24152;DHT22;12311;50.866;4.332;2022-07-29T00:18:33;19.60;99.90
24152;DHT22;12311;50.866;4.332;2022-07-29T00:20:59;19.50;99.90
24152;DHT22;12311;50.866;4.332;2022-07-29T00:23:25;19.50;99.90
24152;DHT22;12311;50.866;4.332;2022-07-29T00:25:50;19.50;99.90
24152;DHT22;12311;50.866;4.332;2022-07-29T00:28:16;19.50;99.90
24152;DHT22;12311;50.866;4.332;2022-07-29T00:30:41;19.30;99.90
24152;DHT22;12311;50.866;4.332;2022-07-29T00:33:09;19.30;99.90
24152;DHT22;12311;50.866;4.332;2022-07-29T00:35:34;19.20;99.90
24152;DHT22;12311;50.866;4.332;2022-07-29T00:38:10;19.20;99.90
24152;DHT22;12311;50.866;4.332;2022-07-29T00:40:36;19.20;99.90
24152;DHT22;12311;50.866;4.332;2022-07-29T00:43:02;19.10;99.90
24152;DHT22;12311;50.866;4.332;2022-07-29T00:45:28;19.00;99.90
24152;DHT22;12311;50.866;4.332;2022-07-29T00:47:55;19.00;99.90
24152;DHT22;12311;50.866;4.332;2022-07-29T00:50:21;19.00;99.90
24152;DHT22;12311;50.866;4.332;2022-07-29T00:52:47;19.00;99.90
24152;DHT22;12311;50.866;4.332;2022-07-29T00:55:14;19.00;99.90
24152;DHT22;12311;50.866;4.332;2022-07-29T00:57:42;18.90;99.90
24152;DHT22;12311;50.866;4.332;2022-07-29T01:00:11;18.90;99.90
24152;DHT22;12311;50.866;4.332;2022-07-29T01:02:37;18.90;99.90
24152;DHT22;12311;50.866;4.332;2022-07-29T01:05:04;18.80;99.90
24152;DHT22;12311;50.866;4.332;2022-07-29T01:07:32;18.80;99.90
24152;DHT22;12311;50.866;4.332;2022-07-29T01:09:58;18.80;99.90
24152;DHT22;12311;50.866;4.332;2022-07-29T01:12:28;18.80;99.90
24152;DHT22;12311;50.866;4.332;2022-07-29T01:14:58;18.80;99.90
24152;DHT22;12311;50.866;4.332;2022-07-29T01:17:28;18.70;99.90
24152;DHT22;12311;50.866;4.332;2022-07-29T01:23:30;18.60;99.90
24152;DHT22;12311;50.866;4.332;2022-07-29T01:30:51;18.50;99.90
24152;DHT22;12311;50.866;4.332;2022-07-29T01:33:19;18.50;99.90
24152;DHT22;12311;50.866;4.332;2022-07-29T01:36:11;18.40;99.90
24152;DHT22;12311;50.866;4.332;2022-07-29T01:38:39;18.40;99.90
24152;DHT22;12311;50.866;4.332;2022-07-29T01:41:09;18.20;99.90
24152;DHT22;12311;50.866;4.332;2022-07-29T01:44:10;18.20;99.90
24152;DHT22;12311;50.866;4.332;2022-07-29T01:46:39;18.30;99.90
24152;DHT22;12311;50.866;4.332;2022-07-29T01:49:11;18.20;99.90
24152;DHT22;12311;50.866;4.332;2022-07-29T01:51:52;18.20;99.90
24152;DHT22;12311;50.866;4.332;2022-07-29T01:54:19;18.20;99.90
24152;DHT22;12311;50.866;4.332;2022-07-29T01:56:48;18.10;99.90
24152;DHT22;12311;50.866;4.332;2022-07-29T01:59:16;18.00;99.90
24152;DHT22;12311;50.866;4.332;2022-07-29T02:01:43;17.90;99.90
24152;DHT22;12311;50.866;4.332;2022-07-29T02:04:10;17.90;99.90
24152;DHT22;12311;50.866;4.332;2022-07-29T02:06:38;17.90;99.90
24152;DHT22;12311;50.866;4.332;2022-07-29T02:09:07;18.00;99.90
24152;DHT22;12311;50.866;4.332;2022-07-29T02:11:34;17.90;99.90
24152;DHT22;12311;50.866;4.332;2022-07-29T02:14:01;17.90;99.90
24152;DHT22;12311;50.866;4.332;2022-07-29T02:16:30;17.80;99.90
24152;DHT22;12311;50.866;4.332;2022-07-29T02:18:58;17.80;99.90
24152;DHT22;12311;50.866;4.332;2022-07-29T02:21:26;17.70;99.90
24152;DHT22;12311;50.866;4.332;2022-07-29T02:23:53;17.80;99.90
24152;DHT22;12311;50.866;4.332;2022-07-29T02:26:21;17.80;99.90
24152;DHT22;12311;50.866;4.332;2022-07-29T02:28:50;17.80;99.90
24152;DHT22;12311;50.866;4.332;2022-07-29T02:31:19;17.80;99.90
24152;DHT22;12311;50.866;4.332;2022-07-29T02:33:46;17.80;99.90
24152;DHT22;12311;50.866;4.332;2022-07-29T02:36:13;17.80;99.90
24152;DHT22;12311;50.866;4.332;2022-07-29T02:38:41;17.80;99.90
24152;DHT22;12311;50.866;4.332;2022-07-29T02:41:40;17.80;99.90
24152;DHT22;12311;50.866;4.332;2022-07-29T02:44:10;17.70;99.90
24152;DHT22;12311;50.866;4.332;2022-07-29T02:46:41;17.60;99.90
24152;DHT22;12311;50.866;4.332;2022-07-29T02:49:13;17.50;99.90
24152;DHT22;12311;50.866;4.332;2022-07-29T02:51:43;17.50;99.90
24152;DHT22;12311;50.866;4.332;2022-07-29T02:54:19;17.50;99.90
24152;DHT22;12311;50.866;4.332;2022-07-29T02:56:46;17.50;99.90
24152;DHT22;12311;50.866;4.332;2022-07-29T02:59:14;17.50;99.90
24152;DHT22;12311;50.866;4.332;2022-07-29T03:01:43;17.40;99.90
24152;DHT22;12311;50.866;4.332;2022-07-29T03:04:12;17.40;99.90
24152;DHT22;12311;50.866;4.332;2022-07-29T03:06:38;17.40;99.90
24152;DHT22;12311;50.866;4.332;2022-07-29T03:09:10;17.30;99.90
24152;DHT22;12311;50.866;4.332;2022-07-29T03:11:37;17.30;99.90
24152;DHT22;12311;50.866;4.332;2022-07-29T03:14:04;17.20;99.90
24152;DHT22;12311;50.866;4.332;2022-07-29T03:16:31;17.10;99.90
24152;DHT22;12311;50.866;4.332;2022-07-29T03:18:57;17.10;99.90
24152;DHT22;12311;50.866;4.332;2022-07-29T03:21:23;17.10;99.90
24152;DHT22;12311;50.866;4.332;2022-07-29T03:23:49;17.10;99.90
24152;DHT22;12311;50.866;4.332;2022-07-29T03:26:14;17.10;99.90
24152;DHT22;12311;50.866;4.332;2022-07-29T03:28:40;17.00;99.90
24152;DHT22;12311;50.866;4.332;2022-07-29T03:31:05;17.00;99.90
24152;DHT22;12311;50.866;4.332;2022-07-29T03:33:31;17.00;99.90
24152;DHT22;12311;50.866;4.332;2022-07-29T03:35:57;17.00;99.90
24152;DHT22;12311;50.866;4.332;2022-07-29T03:38:25;17.00;99.90
24152;DHT22;12311;50.866;4.332;2022-07-29T03:41:05;17.00;99.90
24152;DHT22;12311;50.866;4.332;2022-07-29T03:43:35;17.00;99.90
24152;DHT22;12311;50.866;4.332;2022-07-29T03:46:02;17.00;99.90
24152;DHT22;12311;50.866;4.332;2022-07-29T03:48:32;16.90;99.90
24152;DHT22;12311;50.866;4.332;2022-07-29T03:50:58;16.90;99.90
24152;DHT22;12311;50.866;4.332;2022-07-29T03:53:24;16.80;99.90
24152;DHT22;12311;50.866;4.332;2022-07-29T03:55:54;16.80;99.90
24152;DHT22;12311;50.866;4.332;2022-07-29T03:58:23;16.80;99.90
24152;DHT22;12311;50.866;4.332;2022-07-29T04:00:52;16.70;99.90
24152;DHT22;12311;50.866;4.332;2022-07-29T04:03:19;16.70;99.90
24152;DHT22;12311;50.866;4.332;2022-07-29T04:05:44;16.70;99.90
24152;DHT22;12311;50.866;4.332;2022-07-29T04:08:10;16.70;99.90
24152;DHT22;12311;50.866;4.332;2022-07-29T04:10:36;16.60;99.90
24152;DHT22;12311;50.866;4.332;2022-07-29T04:13:03;16.60;99.90
24152;DHT22;12311;50.866;4.332;2022-07-29T04:15:28;16.60;99.90
24152;DHT22;12311;50.866;4.332;2022-07-29T04:17:55;16.60;99.90
24152;DHT22;12311;50.866;4.332;2022-07-29T04:20:21;16.60;99.90
24152;DHT22;12311;50.866;4.332;2022-07-29T04:22:46;16.60;99.90
24152;DHT22;12311;50.866;4.332;2022-07-29T04:25:12;16.60;99.90
24152;DHT22;12311;50.866;4.332;2022-07-29T04:27:37;16.60;99.90
24152;DHT22;12311;50.866;4.332;2022-07-29T04:30:23;16.60;99.90
24152;DHT22;12311;50.866;4.332;2022-07-29T04:32:49;16.50;99.90
24152;DHT22;12311;50.866;4.332;2022-07-29T04:35:14;16.50;99.90
24152;DHT22;12311;50.866;4.332;2022-07-29T04:37:40;16.40;99.90
24152;DHT22;12311;50.866;4.332;2022-07-29T04:40:06;16.50;99.90
24152;DHT22;12311;50.866;4.332;2022-07-29T04:42:32;16.40;99.90
24152;DHT22;12311;50.866;4.332;2022-07-29T04:44:57;16.50;99.90
24152;DHT22;12311;50.866;4.332;2022-07-29T04:47:23;16.50;99.90
24152;DHT22;12311;50.866;4.332;2022-07-29T04:49:48;16.60;99.90
24152;DHT22;12311;50.866;4.332;2022-07-29T04:52:14;16.60;99.90
24152;DHT22;12311;50.866;4.332;2022-07-29T04:54:40;16.60;99.90
24152;DHT22;12311;50.866;4.332;2022-07-29T04:57:05;16.60;99.90
24152;DHT22;12311;50.866;4.332;2022-07-29T04:59:31;16.60;99.90
24152;DHT22;12311;50.866;4.332;2022-07-29T05:01:57;16.50;99.90
24152;DHT22;12311;50.866;4.332;2022-07-29T05:04:22;16.60;99.90
24152;DHT22;12311;50.866;4.332;2022-07-29T05:06:48;16.60;99.90
24152;DHT22;12311;50.866;4.332;2022-07-29T05:09:14;16.70;99.90
24152;DHT22;12311;50.866;4.332;2022-07-29T05:11:39;16.70;99.90
24152;DHT22;12311;50.866;4.332;2022-07-29T05:14:05;16.80;99.90
24152;DHT22;12311;50.866;4.332;2022-07-29T05:16:31;16.80;99.90
24152;DHT22;12311;50.866;4.332;2022-07-29T05:18:56;16.80;99.90
24152;DHT22;12311;50.866;4.332;2022-07-29T05:21:22;16.80;99.90
24152;DHT22;12311;50.866;4.332;2022-07-29T05:23:48;16.80;99.90
24152;DHT22;12311;50.866;4.332;2022-07-29T05:26:13;16.80;99.90
24152;DHT22;12311;50.866;4.332;2022-07-29T05:28:39;16.90;99.90
24152;DHT22;12311;50.866;4.332;2022-07-29T05:31:05;16.90;99.90
24152;DHT22;12311;50.866;4.332;2022-07-29T05:33:30;16.90;99.90
24152;DHT22;12311;50.866;4.332;2022-07-29T05:35:57;17.00;99.90
24152;DHT22;12311;50.866;4.332;2022-07-29T05:38:22;17.10;99.90
24152;DHT22;12311;50.866;4.332;2022-07-29T05:40:48;17.20;99.90
24152;DHT22;12311;50.866;4.332;2022-07-29T05:43:14;17.20;99.90
24152;DHT22;12311;50.866;4.332;2022-07-29T05:45:39;17.20;99.90
24152;DHT22;12311;50.866;4.332;2022-07-29T05:48:05;17.20;99.90
24152;DHT22;12311;50.866;4.332;2022-07-29T05:50:30;17.30;99.90
24152;DHT22;12311;50.866;4.332;2022-07-29T05:52:56;17.30;99.90
24152;DHT22;12311;50.866;4.332;2022-07-29T05:55:22;17.30;99.90
24152;DHT22;12311;50.866;4.332;2022-07-29T05:57:47;17.30;99.90
24152;DHT22;12311;50.866;4.332;2022-07-29T06:00:13;17.30;99.90
24152;DHT22;12311;50.866;4.332;2022-07-29T06:02:39;17.40;99.90
24152;DHT22;12311;50.866;4.332;2022-07-29T06:05:05;17.50;99.90
24152;DHT22;12311;50.866;4.332;2022-07-29T06:07:30;17.50;99.90
24152;DHT22;12311;50.866;4.332;2022-07-29T06:09:57;17.50;99.90
24152;DHT22;12311;50.866;4.332;2022-07-29T06:12:23;17.60;99.90
24152;DHT22;12311;50.866;4.332;2022-07-29T06:14:49;17.60;99.90
24152;DHT22;12311;50.866;4.332;2022-07-29T06:17:16;17.80;99.90
24152;DHT22;12311;50.866;4.332;2022-07-29T06:19:41;17.90;99.90
24152;DHT22;12311;50.866;4.332;2022-07-29T06:22:07;18.10;99.90
24152;DHT22;12311;50.866;4.332;2022-07-29T06:24:33;18.30;99.90
24152;DHT22;12311;50.866;4.332;2022-07-29T06:26:58;18.60;99.90
24152;DHT22;12311;50.866;4.332;2022-07-29T06:29:24;18.80;99.90
24152;DHT22;12311;50.866;4.332;2022-07-29T06:31:50;19.00;99.90
24152;DHT22;12311;50.866;4.332;2022-07-29T06:34:15;19.10;99.90
24152;DHT22;12311;50.866;4.332;2022-07-29T06:36:41;19.20;99.90
24152;DHT22;12311;50.866;4.332;2022-07-29T06:39:08;19.30;99.90
24152;DHT22;12311;50.866;4.332;2022-07-29T06:41:33;19.30;99.90
24152;DHT22;12311;50.866;4.332;2022-07-29T06:43:59;19.30;99.90
24152;DHT22;12311;50.866;4.332;2022-07-29T06:46:25;19.40;99.90
24152;DHT22;12311;50.866;4.332;2022-07-29T06:48:51;19.70;99.90
24152;DHT22;12311;50.866;4.332;2022-07-29T06:51:18;20.00;99.90
24152;DHT22;12311;50.866;4.332;2022-07-29T06:53:44;20.20;99.90
24152;DHT22;12311;50.866;4.332;2022-07-29T06:56:09;20.50;99.90
24152;DHT22;12311;50.866;4.332;2022-07-29T06:58:35;20.90;99.90
24152;DHT22;12311;50.866;4.332;2022-07-29T07:01:02;21.10;99.90
24152;DHT22;12311;50.866;4.332;2022-07-29T07:03:28;21.30;99.90
24152;DHT22;12311;50.866;4.332;2022-07-29T07:05:55;21.40;99.90
24152;DHT22;12311;50.866;4.332;2022-07-29T07:08:21;21.50;99.90
24152;DHT22;12311;50.866;4.332;2022-07-29T07:10:48;21.70;99.90
24152;DHT22;12311;50.866;4.332;2022-07-29T07:13:13;21.70;99.90
24152;DHT22;12311;50.866;4.332;2022-07-29T07:15:40;21.50;99.90
24152;DHT22;12311;50.866;4.332;2022-07-29T07:18:06;21.50;99.90
24152;DHT22;12311;50.866;4.332;2022-07-29T07:20:33;21.50;99.90
24152;DHT22;12311;50.866;4.332;2022-07-29T07:22:58;21.50;99.90
24152;DHT22;12311;50.866;4.332;2022-07-29T07:25:24;21.30;99.90
24152;DHT22;12311;50.866;4.332;2022-07-29T07:27:50;21.20;99.90
24152;DHT22;12311;50.866;4.332;2022-07-29T07:30:15;21.20;99.90
24152;DHT22;12311;50.866;4.332;2022-07-29T07:32:42;21.20;99.90
24152;DHT22;12311;50.866;4.332;2022-07-29T07:35:08;21.10;99.90
24152;DHT22;12311;50.866;4.332;2022-07-29T07:37:35;21.00;99.90
24152;DHT22;12311;50.866;4.332;2022-07-29T07:40:01;21.00;99.90
24152;DHT22;12311;50.866;4.332;2022-07-29T07:42:27;21.10;99.90
24152;DHT22;12311;50.866;4.332;2022-07-29T07:44:53;21.10;99.90
24152;DHT22;12311;50.866;4.332;2022-07-29T07:47:18;21.10;99.90
24152;DHT22;12311;50.866;4.332;2022-07-29T07:49:49;21.20;99.90
24152;DHT22;12311;50.866;4.332;2022-07-29T07:52:17;21.20;99.90
24152;DHT22;12311;50.866;4.332;2022-07-29T07:54:43;21.30;99.90
24152;DHT22;12311;50.866;4.332;2022-07-29T07:57:13;21.30;99.90
24152;DHT22;12311;50.866;4.332;2022-07-29T07:59:39;21.20;99.90
24152;DHT22;12311;50.866;4.332;2022-07-29T08:02:05;21.10;99.90
24152;DHT22;12311;50.866;4.332;2022-07-29T08:04:31;21.20;99.90
24152;DHT22;12311;50.866;4.332;2022-07-29T08:06:58;21.20;99.90
24152;DHT22;12311;50.866;4.332;2022-07-29T08:09:25;21.20;99.90
24152;DHT22;12311;50.866;4.332;2022-07-29T08:11:51;21.40;99.90
24152;DHT22;12311;50.866;4.332;2022-07-29T08:14:17;21.50;99.90
24152;DHT22;12311;50.866;4.332;2022-07-29T08:16:43;21.60;99.90
24152;DHT22;12311;50.866;4.332;2022-07-29T08:19:09;21.70;99.90
24152;DHT22;12311;50.866;4.332;2022-07-29T08:21:35;21.60;99.90
24152;DHT22;12311;50.866;4.332;2022-07-29T08:24:02;21.50;99.90
24152;DHT22;12311;50.866;4.332;2022-07-29T08:26:46;21.60;99.90
24152;DHT22;12311;50.866;4.332;2022-07-29T08:29:12;21.80;99.90
24152;DHT22;12311;50.866;4.332;2022-07-29T08:31:38;22.00;99.90
24152;DHT22;12311;50.866;4.332;2022-07-29T08:34:04;22.30;99.90
24152;DHT22;12311;50.866;4.332;2022-07-29T08:36:30;22.40;99.90
24152;DHT22;12311;50.866;4.332;2022-07-29T08:38:57;22.50;99.90
24152;DHT22;12311;50.866;4.332;2022-07-29T08:41:23;22.50;99.90
24152;DHT22;12311;50.866;4.332;2022-07-29T08:43:50;22.30;99.90
24152;DHT22;12311;50.866;4.332;2022-07-29T08:46:16;22.20;99.90
24152;DHT22;12311;50.866;4.332;2022-07-29T08:48:42;22.30;99.90
24152;DHT22;12311;50.866;4.332;2022-07-29T08:51:13;22.40;99.90
24152;DHT22;12311;50.866;4.332;2022-07-29T08:53:42;22.50;99.90
24152;DHT22;12311;50.866;4.332;2022-07-29T08:56:11;22.80;99.90
24152;DHT22;12311;50.866;4.332;2022-07-29T08:58:39;23.00;99.90
24152;DHT22;12311;50.866;4.332;2022-07-29T09:01:06;23.10;99.90
24152;DHT22;12311;50.866;4.332;2022-07-29T09:03:34;23.20;99.90
24152;DHT22;12311;50.866;4.332;2022-07-29T09:06:02;23.20;99.90
24152;DHT22;12311;50.866;4.332;2022-07-29T09:08:28;23.30;99.90
24152;DHT22;12311;50.866;4.332;2022-07-29T09:10:54;23.40;99.90
24152;DHT22;12311;50.866;4.332;2022-07-29T09:13:23;23.60;99.90
24152;DHT22;12311;50.866;4.332;2022-07-29T09:15:49;23.70;99.90
24152;DHT22;12311;50.866;4.332;2022-07-29T09:18:50;23.80;99.90
24152;DHT22;12311;50.866;4.332;2022-07-29T09:21:17;23.90;99.90
24152;DHT22;12311;50.866;4.332;2022-07-29T09:24:06;24.00;99.90
24152;DHT22;12311;50.866;4.332;2022-07-29T09:26:34;24.20;99.90
24152;DHT22;12311;50.866;4.332;2022-07-29T09:29:01;24.30;99.90
24152;DHT22;12311;50.866;4.332;2022-07-29T09:31:35;24.30;99.90
24152;DHT22;12311;50.866;4.332;2022-07-29T09:34:02;24.40;99.90
24152;DHT22;12311;50.866;4.332;2022-07-29T09:36:28;24.60;99.90
24152;DHT22;12311;50.866;4.332;2022-07-29T09:39:01;24.60;99.90
24152;DHT22;12311;50.866;4.332;2022-07-29T09:41:28;24.50;99.90
24152;DHT22;12311;50.866;4.332;2022-07-29T09:43:55;24.50;99.90
24152;DHT22;12311;50.866;4.332;2022-07-29T09:46:22;24.70;99.90
24152;DHT22;12311;50.866;4.332;2022-07-29T09:49:08;24.90;99.90
24152;DHT22;12311;50.866;4.332;2022-07-29T09:51:36;25.60;99.90
24152;DHT22;12311;50.866;4.332;2022-07-29T09:54:24;26.00;99.90
24152;DHT22;12311;50.866;4.332;2022-07-29T09:56:51;26.70;99.90
24152;DHT22;12311;50.866;4.332;2022-07-29T09:59:17;27.50;99.90
24152;DHT22;12311;50.866;4.332;2022-07-29T10:01:43;28.10;99.90
24152;DHT22;12311;50.866;4.332;2022-07-29T10:04:09;28.90;99.90
24152;DHT22;12311;50.866;4.332;2022-07-29T10:06:34;29.70;99.10
24152;DHT22;12311;50.866;4.332;2022-07-29T10:09:10;30.20;97.20
24152;DHT22;12311;50.866;4.332;2022-07-29T10:11:36;30.00;96.10
24152;DHT22;12311;50.866;4.332;2022-07-29T10:14:03;30.40;95.20
24152;DHT22;12311;50.866;4.332;2022-07-29T10:16:29;30.50;93.80
24152;DHT22;12311;50.866;4.332;2022-07-29T10:18:58;30.60;92.90
24152;DHT22;12311;50.866;4.332;2022-07-29T10:21:27;30.60;92.30
24152;DHT22;12311;50.866;4.332;2022-07-29T10:23:53;31.30;91.30
24152;DHT22;12311;50.866;4.332;2022-07-29T10:26:19;31.40;89.80
24152;DHT22;12311;50.866;4.332;2022-07-29T10:28:45;31.20;90.10
24152;DHT22;12311;50.866;4.332;2022-07-29T10:31:26;31.50;90.20
24152;DHT22;12311;50.866;4.332;2022-07-29T10:34:05;31.70;90.30
24152;DHT22;12311;50.866;4.332;2022-07-29T10:42:19;33.50;82.60
24152;DHT22;12311;50.866;4.332;2022-07-29T10:44:46;34.30;78.80
24152;DHT22;12311;50.866;4.332;2022-07-29T10:47:25;34.10;75.00
24152;DHT22;12311;50.866;4.332;2022-07-29T10:49:58;33.50;72.40
24152;DHT22;12311;50.866;4.332;2022-07-29T10:52:24;33.60;72.20
24152;DHT22;12311;50.866;4.332;2022-07-29T10:54:53;33.90;71.90
24152;DHT22;12311;50.866;4.332;2022-07-29T10:57:28;33.60;70.90
24152;DHT22;12311;50.866;4.332;2022-07-29T11:07:32;33.80;65.70
24152;DHT22;12311;50.866;4.332;2022-07-29T11:15:53;33.30;60.70
24152;DHT22;12311;50.866;4.332;2022-07-29T11:18:20;33.70;61.60
24152;DHT22;12311;50.866;4.332;2022-07-29T11:20:50;33.70;61.90
24152;DHT22;12311;50.866;4.332;2022-07-29T11:23:30;34.10;61.80
24152;DHT22;12311;50.866;4.332;2022-07-29T11:39:44;34.90;57.60
24152;DHT22;12311;50.866;4.332;2022-07-29T11:47:34;35.00;56.50
24152;DHT22;12311;50.866;4.332;2022-07-29T11:50:03;35.80;56.30
24152;DHT22;12311;50.866;4.332;2022-07-29T11:52:38;37.00;53.70
24152;DHT22;12311;50.866;4.332;2022-07-29T11:55:10;37.50;52.50
24152;DHT22;12311;50.866;4.332;2022-07-29T11:57:37;38.20;50.90
24152;DHT22;12311;50.866;4.332;2022-07-29T12:00:05;38.10;50.70
24152;DHT22;12311;50.866;4.332;2022-07-29T12:02:43;37.70;50.60
24152;DHT22;12311;50.866;4.332;2022-07-29T12:05:09;38.10;50.00
24152;DHT22;12311;50.866;4.332;2022-07-29T12:07:36;38.10;49.60
24152;DHT22;12311;50.866;4.332;2022-07-29T12:10:05;37.90;48.90
24152;DHT22;12311;50.866;4.332;2022-07-29T12:12:31;37.40;48.70
24152;DHT22;12311;50.866;4.332;2022-07-29T12:14:56;37.10;49.80
24152;DHT22;12311;50.866;4.332;2022-07-29T12:17:26;37.30;49.40
24152;DHT22;12311;50.866;4.332;2022-07-29T12:19:55;37.70;48.30
24152;DHT22;12311;50.866;4.332;2022-07-29T12:22:25;37.70;48.60
24152;DHT22;12311;50.866;4.332;2022-07-29T12:24:51;38.40;47.70
24152;DHT22;12311;50.866;4.332;2022-07-29T12:27:17;38.40;47.40
24152;DHT22;12311;50.866;4.332;2022-07-29T12:29:43;38.90;46.00
24152;DHT22;12311;50.866;4.332;2022-07-29T12:32:09;38.40;46.10
24152;DHT22;12311;50.866;4.332;2022-07-29T12:34:35;37.80;46.70
24152;DHT22;12311;50.866;4.332;2022-07-29T12:37:01;38.30;46.70
24152;DHT22;12311;50.866;4.332;2022-07-29T12:39:27;38.80;46.00
24152;DHT22;12311;50.866;4.332;2022-07-29T12:41:53;39.00;45.10
24152;DHT22;12311;50.866;4.332;2022-07-29T12:44:19;39.10;45.80
24152;DHT22;12311;50.866;4.332;2022-07-29T12:46:44;39.90;44.00
24152;DHT22;12311;50.866;4.332;2022-07-29T12:49:21;40.20;44.00
24152;DHT22;12311;50.866;4.332;2022-07-29T12:51:47;40.80;43.00
24152;DHT22;12311;50.866;4.332;2022-07-29T12:54:14;41.20;40.80
24152;DHT22;12311;50.866;4.332;2022-07-29T12:56:41;40.80;41.30
24152;DHT22;12311;50.866;4.332;2022-07-29T12:59:15;40.00;41.80
24152;DHT22;12311;50.866;4.332;2022-07-29T13:01:41;39.60;42.20
24152;DHT22;12311;50.866;4.332;2022-07-29T13:04:07;40.60;41.50
24152;DHT22;12311;50.866;4.332;2022-07-29T13:06:44;39.90;41.60
24152;DHT22;12311;50.866;4.332;2022-07-29T13:09:15;39.70;42.00
24152;DHT22;12311;50.866;4.332;2022-07-29T13:11:43;39.70;41.50
24152;DHT22;12311;50.866;4.332;2022-07-29T13:14:11;39.10;42.30
24152;DHT22;12311;50.866;4.332;2022-07-29T13:17:07;38.50;42.00
24152;DHT22;12311;50.866;4.332;2022-07-29T13:19:40;38.20;42.70
24152;DHT22;12311;50.866;4.332;2022-07-29T13:22:07;37.60;43.90
24152;DHT22;12311;50.866;4.332;2022-07-29T13:24:33;38.00;43.50
24152;DHT22;12311;50.866;4.332;2022-07-29T13:26:59;38.00;43.00
24152;DHT22;12311;50.866;4.332;2022-07-29T13:29:24;37.40;42.60
24152;DHT22;12311;50.866;4.332;2022-07-29T13:31:52;37.00;43.60
24152;DHT22;12311;50.866;4.332;2022-07-29T13:34:17;36.70;43.70
24152;DHT22;12311;50.866;4.332;2022-07-29T13:36:45;37.20;44.00
24152;DHT22;12311;50.866;4.332;2022-07-29T13:39:11;37.60;42.90
24152;DHT22;12311;50.866;4.332;2022-07-29T13:41:37;37.50;43.10
24152;DHT22;12311;50.866;4.332;2022-07-29T13:44:03;37.70;43.70
24152;DHT22;12311;50.866;4.332;2022-07-29T13:46:28;38.00;43.00
24152;DHT22;12311;50.866;4.332;2022-07-29T13:48:54;38.20;43.00
24152;DHT22;12311;50.866;4.332;2022-07-29T13:51:20;38.70;42.40
24152;DHT22;12311;50.866;4.332;2022-07-29T13:53:45;39.40;41.60
24152;DHT22;12311;50.866;4.332;2022-07-29T13:56:11;40.50;40.50
24152;DHT22;12311;50.866;4.332;2022-07-29T13:58:37;40.60;39.70
24152;DHT22;12311;50.866;4.332;2022-07-29T14:01:03;40.50;38.70
24152;DHT22;12311;50.866;4.332;2022-07-29T14:03:28;40.60;39.30
24152;DHT22;12311;50.866;4.332;2022-07-29T14:05:54;41.00;38.80
24152;DHT22;12311;50.866;4.332;2022-07-29T14:08:21;40.80;38.80
24152;DHT22;12311;50.866;4.332;2022-07-29T14:10:47;40.10;39.20
24152;DHT22;12311;50.866;4.332;2022-07-29T14:13:12;40.00;40.10
24152;DHT22;12311;50.866;4.332;2022-07-29T14:15:38;39.40;40.50
24152;DHT22;12311;50.866;4.332;2022-07-29T14:18:04;39.50;40.70
24152;DHT22;12311;50.866;4.332;2022-07-29T14:20:30;40.50;40.00
24152;DHT22;12311;50.866;4.332;2022-07-29T14:22:56;41.50;38.60
24152;DHT22;12311;50.866;4.332;2022-07-29T14:25:23;42.20;37.20
24152;DHT22;12311;50.866;4.332;2022-07-29T14:27:49;42.10;37.30
24152;DHT22;12311;50.866;4.332;2022-07-29T14:30:14;41.60;36.50
24152;DHT22;12311;50.866;4.332;2022-07-29T14:32:40;39.80;37.40
24152;DHT22;12311;50.866;4.332;2022-07-29T14:35:07;38.50;39.50
24152;DHT22;12311;50.866;4.332;2022-07-29T14:37:33;37.20;40.90
24152;DHT22;12311;50.866;4.332;2022-07-29T14:40:01;37.20;41.80
24152;DHT22;12311;50.866;4.332;2022-07-29T14:42:28;37.30;41.80
24152;DHT22;12311;50.866;4.332;2022-07-29T14:44:54;36.70;42.30
24152;DHT22;12311;50.866;4.332;2022-07-29T14:47:20;36.00;43.30
24152;DHT22;12311;50.866;4.332;2022-07-29T14:49:47;35.30;44.60
24152;DHT22;12311;50.866;4.332;2022-07-29T14:52:12;35.20;44.30
24152;DHT22;12311;50.866;4.332;2022-07-29T14:54:38;35.00;44.60
24152;DHT22;12311;50.866;4.332;2022-07-29T14:57:04;34.80;44.80
24152;DHT22;12311;50.866;4.332;2022-07-29T14:59:29;35.40;44.50
24152;DHT22;12311;50.866;4.332;2022-07-29T15:01:55;35.60;43.80
24152;DHT22;12311;50.866;4.332;2022-07-29T15:04:21;35.30;43.50
24152;DHT22;12311;50.866;4.332;2022-07-29T15:06:46;34.80;44.30
24152;DHT22;12311;50.866;4.332;2022-07-29T15:09:12;33.90;45.80
24152;DHT22;12311;50.866;4.332;2022-07-29T15:11:38;33.90;46.50
24152;DHT22;12311;50.866;4.332;2022-07-29T15:14:04;34.80;45.90
24152;DHT22;12311;50.866;4.332;2022-07-29T15:16:29;35.60;44.10
24152;DHT22;12311;50.866;4.332;2022-07-29T15:18:55;36.40;43.30
24152;DHT22;12311;50.866;4.332;2022-07-29T15:21:23;36.90;43.00
24152;DHT22;12311;50.866;4.332;2022-07-29T15:23:49;37.10;42.60
24152;DHT22;12311;50.866;4.332;2022-07-29T15:26:14;38.00;41.80
24152;DHT22;12311;50.866;4.332;2022-07-29T15:28:40;38.30;41.20
24152;DHT22;12311;50.866;4.332;2022-07-29T15:31:06;37.70;41.20
24152;DHT22;12311;50.866;4.332;2022-07-29T15:33:32;37.20;42.00
24152;DHT22;12311;50.866;4.332;2022-07-29T15:35:58;36.90;42.50
24152;DHT22;12311;50.866;4.332;2022-07-29T15:38:23;37.30;42.20
24152;DHT22;12311;50.866;4.332;2022-07-29T15:40:49;37.00;42.00
24152;DHT22;12311;50.866;4.332;2022-07-29T15:43:15;37.10;42.50
24152;DHT22;12311;50.866;4.332;2022-07-29T15:45:42;37.00;42.20
24152;DHT22;12311;50.866;4.332;2022-07-29T15:48:27;36.70;42.10
24152;DHT22;12311;50.866;4.332;2022-07-29T15:50:53;36.30;42.70
24152;DHT22;12311;50.866;4.332;2022-07-29T15:53:19;35.40;43.70
24152;DHT22;12311;50.866;4.332;2022-07-29T15:55:44;35.30;44.30
24152;DHT22;12311;50.866;4.332;2022-07-29T15:58:10;34.80;43.80
24152;DHT22;12311;50.866;4.332;2022-07-29T16:00:35;34.20;44.50
24152;DHT22;12311;50.866;4.332;2022-07-29T16:03:01;34.00;45.50
24152;DHT22;12311;50.866;4.332;2022-07-29T16:05:27;33.30;45.40
24152;DHT22;12311;50.866;4.332;2022-07-29T16:07:54;32.90;46.80
24152;DHT22;12311;50.866;4.332;2022-07-29T16:10:19;32.20;47.20
24152;DHT22;12311;50.866;4.332;2022-07-29T16:12:45;31.10;48.90
24152;DHT22;12311;50.866;4.332;2022-07-29T16:15:11;31.00;50.60
24152;DHT22;12311;50.866;4.332;2022-07-29T16:17:37;30.90;50.40
24152;DHT22;12311;50.866;4.332;2022-07-29T16:20:04;31.00;50.30